createdAt,value
2023-01-17T00:02:36.355Z,1.60
2023-01-17T00:07:41.712Z,1.45
2023-01-17T00:12:48.502Z,1.60
2023-01-17T00:17:52.393Z,1.52
2023-01-17T00:22:57.679Z,1.75
2023-01-17T00:28:01.602Z,1.77
2023-01-17T00:33:05.344Z,1.65
2023-01-17T00:38:11.949Z,1.60
2023-01-17T00:43:18.285Z,1.60
2023-01-17T00:48:21.890Z,1.80
2023-01-17T00:53:27.194Z,2.17
2023-01-17T00:58:30.832Z,1.80
2023-01-17T01:03:34.429Z,2.35
2023-01-17T01:08:39.721Z,1.35
2023-01-17T01:13:43.361Z,2.00
2023-01-17T01:18:47.005Z,1.75
2023-01-17T01:23:52.270Z,1.52
2023-01-17T01:28:56.088Z,1.80
2023-01-17T01:33:59.703Z,1.75
2023-01-17T01:39:05.075Z,1.90
2023-01-17T01:44:45.052Z,1.70
2023-01-17T01:49:49.806Z,2.08
2023-01-17T01:54:58.792Z,2.45
2023-01-17T02:00:06.089Z,2.10
2023-01-17T02:05:11.747Z,3.67
2023-01-17T02:10:17.372Z,11.57
2023-01-17T02:15:23.253Z,7.07
2023-01-17T02:21:05.463Z,3.70
2023-01-17T02:26:37.709Z,4.30
2023-01-17T02:31:48.233Z,2.67
2023-01-17T02:36:56.798Z,2.78
2023-01-17T02:42:05.275Z,2.50
2023-01-17T02:47:23.786Z,2.33
2023-01-17T02:52:54.615Z,2.33
2023-01-17T02:58:16.383Z,2.47
2023-01-17T03:03:30.612Z,1.92
2023-01-17T03:08:34.358Z,2.08
2023-01-17T03:13:38.074Z,2.15
2023-01-17T03:18:43.402Z,2.83
2023-01-17T03:23:47.037Z,3.30
2023-01-17T03:28:50.685Z,3.03
2023-01-17T03:34:00.530Z,2.10
2023-01-17T03:39:21.599Z,2.00
2023-01-17T03:44:25.239Z,2.40
2023-01-17T03:49:30.498Z,2.00
2023-01-17T03:54:34.147Z,1.98
2023-01-17T03:59:37.790Z,2.22
2023-01-17T04:04:43.074Z,1.92
2023-01-17T04:09:46.695Z,2.00
2023-01-17T04:14:50.320Z,2.35
2023-01-17T04:19:55.862Z,2.17
2023-01-17T04:24:59.614Z,2.37
2023-01-17T04:30:03.249Z,2.33
2023-01-17T04:35:09.221Z,2.50
2023-01-17T04:40:13.904Z,2.35
2023-01-17T04:45:17.963Z,2.10
2023-01-17T04:50:23.310Z,2.53
2023-01-17T04:55:27.084Z,2.10
2023-01-17T05:00:30.726Z,2.25
2023-01-17T05:05:36.062Z,2.30
2023-01-17T05:10:39.737Z,2.30
2023-01-17T05:15:43.441Z,2.10
2023-01-17T05:20:48.705Z,2.22
2023-01-17T05:25:52.332Z,2.30
2023-01-17T05:30:55.978Z,2.42
2023-01-17T05:36:01.277Z,2.20
2023-01-17T05:41:04.983Z,2.35
2023-01-17T05:46:08.707Z,1.90
2023-01-17T05:51:14.942Z,2.03
2023-01-17T06:01:22.183Z,2.20
2023-01-17T06:06:30.310Z,1.73
2023-01-17T06:11:33.979Z,1.70
2023-01-17T06:16:37.581Z,1.77
2023-01-17T06:21:42.849Z,2.00
2023-01-17T06:26:46.455Z,1.83
2023-01-17T06:31:50.437Z,1.95
2023-01-17T06:36:55.770Z,1.80
2023-01-17T06:41:59.499Z,1.70
2023-01-17T06:47:03.151Z,1.60
2023-01-17T06:52:08.474Z,1.73
2023-01-17T06:57:12.093Z,2.05
2023-01-17T07:02:15.730Z,2.30
2023-01-17T07:07:21.022Z,2.22
2023-01-17T07:12:24.645Z,1.52
2023-01-17T07:17:28.254Z,2.25
2023-01-17T07:22:33.581Z,2.20
2023-01-17T07:27:37.253Z,1.77
2023-01-17T07:32:40.892Z,2.28
2023-01-17T07:37:50.937Z,1.80
2023-01-17T07:43:00.926Z,1.83
2023-01-17T07:48:04.693Z,1.67
2023-01-17T07:53:09.959Z,1.83
2023-01-17T07:58:13.561Z,2.17
2023-01-17T08:03:18.555Z,1.90
2023-01-17T08:08:23.914Z,1.67
2023-01-17T08:13:29.093Z,2.15
2023-01-17T08:18:33.514Z,1.25
2023-01-17T08:23:38.813Z,1.33
2023-01-17T08:28:42.432Z,1.60
2023-01-17T08:33:46.953Z,1.52
2023-01-17T08:38:52.282Z,1.67
2023-01-17T08:43:55.981Z,1.63
2023-01-17T08:49:00.231Z,1.77
2023-01-17T08:54:05.660Z,1.50
2023-01-17T08:59:11.860Z,1.33
2023-01-17T09:04:15.637Z,1.48
2023-01-17T09:09:21.049Z,1.27
2023-01-17T09:14:24.706Z,1.70
2023-01-17T09:19:28.781Z,1.80
2023-01-17T09:24:34.225Z,1.70
2023-01-17T09:29:37.830Z,1.87
2023-01-17T09:34:41.460Z,1.65
2023-01-17T09:39:47.232Z,1.60
2023-01-17T09:44:52.743Z,1.73
2023-01-17T09:50:01.139Z,1.93
2023-01-17T09:55:08.167Z,1.70
2023-01-17T10:00:30.106Z,1.40
2023-01-17T10:05:51.021Z,1.23
2023-01-17T10:11:18.162Z,1.00
2023-01-17T10:16:34.783Z,1.42
2023-01-17T10:26:54.795Z,1.45
2023-01-17T10:32:00.836Z,1.13
2023-01-17T10:37:17.119Z,1.08
2023-01-17T10:42:27.252Z,1.20
2023-01-17T10:47:35.108Z,1.50
2023-01-17T10:52:48.109Z,1.42
2023-01-17T10:57:54.767Z,1.38
2023-01-17T11:02:59.293Z,1.33
2023-01-17T11:08:04.629Z,1.00
2023-01-17T11:13:24.557Z,1.40
2023-01-17T11:18:30.716Z,1.13
2023-01-17T11:23:35.027Z,1.20
2023-01-17T11:28:41.698Z,1.45
2023-01-17T11:33:46.714Z,1.48
2023-01-17T11:38:58.742Z,1.70
2023-01-17T11:44:05.191Z,1.50
2023-01-17T11:54:30.053Z,1.40
2023-01-17T11:59:36.976Z,1.35
2023-01-17T12:04:43.892Z,1.33
2023-01-17T12:09:58.214Z,1.55
2023-01-17T12:15:11.675Z,1.52
2023-01-17T12:20:25.471Z,1.00
2023-01-17T12:25:45.674Z,1.17
2023-01-17T12:31:08.156Z,1.30
2023-01-17T12:36:22.896Z,0.98
2023-01-17T12:41:31.647Z,0.85
2023-01-17T12:46:43.104Z,1.17
2023-01-17T12:51:50.314Z,1.10
2023-01-17T12:56:57.306Z,1.20
2023-01-17T13:02:14.039Z,1.20
2023-01-17T13:12:32.127Z,1.15
2023-01-17T13:17:44.350Z,1.30
2023-01-17T13:22:48.649Z,1.23
2023-01-17T13:28:04.505Z,1.10
2023-01-17T13:33:28.075Z,1.37
2023-01-17T13:38:44.552Z,1.15
2023-01-17T13:43:48.354Z,1.30
2023-01-17T13:49:32.263Z,1.08
2023-01-17T13:54:43.092Z,1.42
2023-01-17T13:59:46.696Z,1.13
2023-01-17T14:05:13.901Z,1.10
2023-01-17T14:10:27.863Z,0.77
2023-01-17T14:15:34.244Z,1.05
2023-01-17T14:20:51.993Z,1.23
2023-01-17T14:26:00.540Z,0.98
2023-01-17T14:31:11.169Z,1.08
2023-01-17T14:36:25.703Z,1.17
2023-01-17T14:41:30.169Z,1.30
2023-01-17T14:46:35.346Z,1.00
2023-01-17T14:51:41.302Z,1.02
2023-01-17T14:56:44.893Z,1.02
2023-01-17T15:02:06.021Z,1.20
2023-01-17T15:07:17.415Z,0.90
2023-01-17T15:12:21.050Z,1.45
2023-01-17T15:17:25.671Z,1.10
2023-01-17T15:22:31.304Z,0.90
2023-01-17T15:27:35.172Z,1.47
2023-01-17T15:32:39.549Z,1.20
2023-01-17T15:37:45.002Z,1.20
2023-01-17T15:42:52.402Z,1.73
2023-01-17T15:47:56.076Z,1.20
2023-01-17T15:53:02.773Z,1.13
2023-01-17T15:58:22.742Z,1.30
2023-01-17T16:03:27.882Z,1.00
2023-01-17T16:08:37.691Z,1.40
2023-01-17T16:13:42.233Z,1.02
2023-01-17T16:18:46.871Z,1.20
2023-01-17T16:23:52.459Z,1.10
2023-01-17T16:28:56.372Z,0.70
2023-01-17T16:34:00.775Z,1.25
2023-01-17T16:39:06.147Z,1.10
2023-01-17T16:44:11.295Z,1.00
2023-01-17T16:49:14.890Z,1.00
2023-01-17T16:54:20.247Z,1.10
2023-01-17T16:59:23.903Z,0.95
2023-01-17T17:04:27.573Z,0.77
2023-01-17T17:09:32.831Z,0.95
2023-01-17T17:14:36.491Z,0.50
2023-01-17T17:19:40.126Z,0.80
2023-01-17T17:24:45.423Z,1.02
2023-01-17T17:29:49.058Z,1.05
2023-01-17T17:34:52.696Z,0.80
2023-01-17T17:39:58.278Z,0.73
2023-01-17T17:45:01.912Z,1.07
2023-01-17T17:50:05.998Z,0.93
2023-01-17T17:55:11.349Z,1.15
2023-01-17T18:00:15.715Z,0.77
2023-01-17T18:05:19.353Z,0.90
2023-01-17T18:10:24.634Z,1.02
2023-01-17T18:15:28.284Z,1.13
2023-01-17T18:20:32.051Z,1.13
2023-01-17T18:25:38.272Z,1.00
2023-01-17T18:35:54.698Z,0.90
2023-01-17T18:41:03.517Z,0.80
2023-01-17T18:46:08.549Z,0.55
2023-01-17T18:51:14.470Z,0.80
2023-01-17T18:56:20.743Z,0.68
2023-01-17T19:01:27.101Z,0.70
2023-01-17T19:06:32.722Z,0.75
2023-01-17T19:11:38.059Z,0.93
2023-01-17T19:16:42.764Z,0.80
2023-01-17T19:21:46.427Z,1.10
2023-01-17T19:26:53.248Z,0.90
2023-01-17T19:31:56.974Z,1.00
2023-01-17T19:37:00.634Z,1.15
2023-01-17T19:42:06.053Z,1.27
2023-01-17T19:47:09.688Z,1.10
2023-01-17T19:52:13.330Z,1.30
2023-01-17T19:57:18.647Z,1.10
2023-01-17T20:02:22.363Z,1.40
2023-01-17T20:07:26.043Z,1.77
2023-01-17T20:12:31.857Z,1.00
2023-01-17T20:17:35.583Z,1.40
2023-01-17T20:22:41.839Z,1.10
2023-01-17T20:27:47.139Z,1.52
2023-01-17T20:32:50.753Z,1.47
2023-01-17T20:37:54.597Z,0.98
2023-01-17T20:43:00.011Z,1.40
2023-01-17T20:48:03.612Z,1.30
2023-01-17T20:53:07.249Z,1.40
2023-01-17T20:58:13.517Z,1.40
2023-01-17T21:03:17.114Z,1.45
2023-01-17T21:08:20.706Z,1.40
2023-01-17T21:13:26.601Z,1.40
2023-01-17T21:18:31.473Z,1.30
2023-01-17T21:23:35.385Z,1.33
2023-01-17T21:28:41.815Z,1.90
2023-01-17T21:33:45.827Z,1.60
2023-01-17T21:38:50.463Z,1.30
2023-01-17T21:43:58.158Z,1.60
2023-01-17T21:49:01.808Z,1.70
2023-01-17T21:54:05.485Z,1.70
2023-01-17T21:59:11.811Z,1.60
2023-01-17T22:04:15.443Z,1.95
2023-01-17T22:09:19.134Z,1.75
2023-01-17T22:14:24.398Z,1.70
2023-01-17T22:19:28.065Z,1.50
2023-01-17T22:24:31.717Z,1.75
2023-01-17T22:29:37.114Z,1.65
2023-01-17T22:34:40.772Z,1.63
2023-01-17T22:39:44.372Z,1.60
2023-01-17T22:44:49.650Z,1.40
2023-01-17T22:49:53.272Z,1.33
2023-01-17T22:54:56.922Z,1.38
2023-01-17T23:00:02.190Z,1.60
2023-01-17T23:05:06.261Z,1.50
2023-01-17T23:10:14.721Z,1.30
2023-01-17T23:15:20.369Z,1.60
2023-01-17T23:20:23.987Z,1.65
2023-01-17T23:25:27.658Z,1.90
2023-01-17T23:30:35.194Z,1.20
2023-01-17T23:35:42.214Z,1.73
2023-01-17T23:40:47.026Z,1.92
2023-01-17T23:45:53.186Z,2.10
2023-01-17T23:50:59.329Z,1.85
2023-01-17T23:56:06.851Z,1.65
